aviador You're here:

KCLL Decoded Metar

COLLEGE STATION in TX, USA
Report Time2017-11-20 12:53:00
UTC Time2017-11-20 13:22:33
Flight Rules vfr VFR
Wind130° at 03 kt
W.Decomp.*RWY 10: 2.7 kt HW 1.2 kt RCW
RWY 16: 2.4 kt HW 1.8 kt LCW
RWY 04: 0.3 kt HW 3.0 kt RCW
W.Rank130° ranks 6
Current wind is below 130° avg. (6.6)
Visibility9999 m
Phenomena:N/A
Clouds:N/A
Expected CloudBase > 2,000 ft AGL from Temp-Dew spread
CeilingNone
Temp07°C (ISA -7)
Dew Point02°C (71% RH)
AAT4.3°C
QNH1023 hPa
Density Alt-814 ft
Elevation315 ft
Report Wrong Elevation
Raw Report
KCLL 201253Z AUTO 13003KT 10SM CLR 07/02 A3021 RMK AO2 SLP227
T00720017 $=

Extra information for KCLL:More info

Metar Taf Metar & Taf Last 4 Metars F.Rules Stats Wind Profile Meteogram Temp Stats Airport Information Weather charts Add Link Nearby VenuesMetar ALERT Operation Metar Decoded Social comments

AIRNAV info for KCLL